Time;durP1;ratioP1;P1;durP2;ratioP2;P2;SDS_P1;SDS_P2;PMS_P1;PMS_P2;Temp;Humidity;BMP_temperature;BMP_pressure;BME280_temperature;BME280_humidity;BME280_pressure;Samples;Min_cycle;Max_cycle;Signal;HPM_P1;HPM_P2
2021/12/05 00:16:56;;;;;;;;;0.00;0.00;;;;;21.50;37.04;100176.84;5041235;28;45421;-74
2021/12/05 00:23:17;;;;;;;;;1.00;0.00;;;;;21.46;37.37;100137.72;5030636;28;45801;-74
2021/12/05 00:25:47;;;;;;;;;0.75;0.75;;;;;21.44;36.95;100118.59;5028176;28;45454;-74
2021/12/05 00:52:14;;;;;;;;;0.00;0.00;;;;;21.38;37.29;100120.19;5030198;28;45338;-75
2021/12/05 01:10:16;;;;;;;;;0.00;0.00;;;;;21.39;37.22;100095.34;5029763;28;45485;-74
2021/12/05 01:15:24;;;;;;;;;0.00;0.00;;;;;21.42;37.36;100104.75;5029599;28;45959;-74
2021/12/05 01:20:21;;;;;;;;;0.00;0.00;;;;;21.40;37.22;100089.88;5029698;27;45508;-73
2021/12/05 01:22:55;;;;;;;;;0.00;0.00;;;;;21.41;37.25;100088.03;5031577;28;45350;-74
2021/12/05 01:25:39;;;;;;;;;0.00;0.00;;;;;21.40;37.26;100081.91;5030841;28;45907;-74
2021/12/05 01:30:52;;;;;;;;;0.00;0.00;;;;;21.21;37.34;100048.22;5029455;28;45282;-74
2021/12/05 01:36:17;;;;;;;;;0.00;0.00;;;;;21.38;36.88;100089.25;5001055;28;45370;-74
2021/12/05 01:52:50;;;;;;;;;1.00;0.00;;;;;21.36;37.19;100062.16;4993248;28;45485;-74
2021/12/05 02:12:01;;;;;;;;;0.00;0.00;;;;;21.34;37.41;100063.38;4979199;28;45696;-74
2021/12/05 02:33:50;;;;;;;;;0.00;0.00;;;;;21.20;37.00;100036.81;5031982;28;45520;-74
2021/12/05 02:41:40;;;;;;;;;0.00;0.00;;;;;21.35;37.18;100043.81;4993022;28;46003;-75
2021/12/05 02:44:14;;;;;;;;;0.00;0.00;;;;;21.34;36.79;100047.50;4991352;28;45545;-74
2021/12/05 02:46:46;;;;;;;;;0.00;0.00;;;;;21.35;36.94;100046.47;4996594;27;45469;-74
2021/12/05 02:49:14;;;;;;;;;0.00;0.00;;;;;21.23;36.93;100030.34;4993341;27;45476;-73
2021/12/05 02:51:41;;;;;;;;;1.00;0.00;;;;;21.35;36.97;100033.22;4994569;28;45982;-74
2021/12/05 02:54:13;;;;;;;;;1.00;0.00;;;;;21.32;37.06;100029.16;4994795;28;45600;-73
2021/12/05 02:56:43;;;;;;;;;0.00;0.00;;;;;21.35;37.21;100020.81;4993448;27;45426;-74
2021/12/05 02:59:49;;;;;;;;;0.00;0.00;;;;;21.35;36.96;100018.19;4990876;28;45852;-74
2021/12/05 03:02:12;;;;;;;;;0.00;0.00;;;;;21.35;37.00;100017.34;5008787;28;45860;-75
2021/12/05 03:04:41;;;;;;;;;0.75;0.00;;;;;21.34;36.94;100008.59;4995605;27;45510;-74
2021/12/05 03:07:09;;;;;;;;;0.00;0.00;;;;;21.24;36.74;99997.56;4994654;27;45344;-74
2021/12/05 03:09:37;;;;;;;;;0.00;0.00;;;;;21.33;36.75;100004.34;4995937;28;45463;-74
2021/12/05 03:12:04;;;;;;;;;2.00;0.00;;;;;21.33;37.01;99995.56;4994190;28;45458;-74
2021/12/05 03:14:30;;;;;;;;;1.50;0.00;;;;;21.33;36.80;99996.41;4992898;27;45281;-74
2021/12/05 03:16:56;;;;;;;;;0.50;0.00;;;;;21.33;37.00;99992.94;5032654;27;45489;-74
2021/12/05 03:19:22;;;;;;;;;0.75;0.75;;;;;21.33;36.85;99995.56;5033012;27;45422;-73
2021/12/05 03:21:49;;;;;;;;;1.00;0.00;;;;;21.23;37.04;99980.88;5031348;28;45425;-74
2021/12/05 03:24:16;;;;;;;;;1.00;0.00;;;;;21.33;36.75;99992.94;5029933;27;45580;-74
2021/12/05 03:26:45;;;;;;;;;0.00;0.00;;;;;21.32;36.90;99989.47;5031749;27;45287;-74
2021/12/05 03:29:13;;;;;;;;;0.00;0.00;;;;;21.27;36.67;99981.28;5031555;28;45374;-74
2021/12/05 03:31:40;;;;;;;;;0.00;0.00;;;;;21.33;37.15;99995.56;5033858;28;45313;-74
2021/12/05 03:34:08;;;;;;;;;0.00;0.00;;;;;21.28;36.87;99996.16;5031237;27;45487;-75
2021/12/05 03:36:35;;;;;;;;;0.00;0.00;;;;;21.32;36.86;99997.41;5031915;28;45379;-74
2021/12/05 03:39:03;;;;;;;;;1.00;0.00;;;;;21.00;36.80;99952.03;5031737;28;45837;-74
2021/12/05 03:41:30;;;;;;;;;1.25;0.00;;;;;21.31;37.01;99989.66;5030313;28;46539;-75
2021/12/05 03:43:56;;;;;;;;;0.00;0.00;;;;;21.29;36.81;99990.66;5032552;27;45634;-74
2021/12/05 03:46:23;;;;;;;;;0.00;0.00;;;;;21.29;37.04;99984.56;5033010;28;45296;-73
2021/12/05 03:48:54;;;;;;;;;0.00;0.00;;;;;21.31;36.80;99997.59;5030972;27;45566;-74
2021/12/05 03:51:22;;;;;;;;;1.00;1.00;;;;;21.31;36.81;99997.59;5030958;27;47092;-74
2021/12/05 03:53:48;;;;;;;;;0.00;0.00;;;;;21.29;37.04;100003.91;5031223;28;45481;-74
2021/12/05 03:56:14;;;;;;;;;0.00;0.00;;;;;21.24;36.73;100001.03;5031486;28;45300;-74
2021/12/05 03:58:40;;;;;;;;;0.00;0.00;;;;;21.29;36.89;100003.06;5033189;28;45558;-74
2021/12/05 04:01:07;;;;;;;;;0.00;0.00;;;;;21.29;36.79;99990.66;5031181;28;46274;-74
2021/12/05 04:03:35;;;;;;;;;2.00;0.00;;;;;21.25;37.20;99986.78;5029371;28;45462;-73
2021/12/05 04:06:02;;;;;;;;;0.00;0.00;;;;;21.25;37.02;99986.78;5031206;28;45468;-74
2021/12/05 04:08:30;;;;;;;;;0.00;0.00;;;;;21.28;37.14;99990.88;5031362;28;45672;-74
2021/12/05 04:11:01;;;;;;;;;0.00;0.00;;;;;21.25;36.77;99989.44;5031657;28;46046;-75
2021/12/05 04:13:28;;;;;;;;;0.00;0.00;;;;;21.26;36.97;99974.38;5041871;27;45342;-75
2021/12/05 04:15:55;;;;;;;;;0.00;0.00;;;;;21.21;36.90;99968.88;5029959;27;45268;-74
2021/12/05 04:18:21;;;;;;;;;0.00;0.00;;;;;21.27;36.94;99976.00;5030693;27;45496;-74
2021/12/05 04:20:48;;;;;;;;;1.00;0.00;;;;;21.29;36.97;99982.72;5029658;27;45572;-74
2021/12/05 04:23:15;;;;;;;;;0.25;0.00;;;;;21.30;36.78;99978.25;5030983;27;46452;-72
2021/12/05 04:25:41;;;;;;;;;0.00;0.00;;;;;21.31;36.93;99989.66;5033002;28;45399;-74
2021/12/05 04:28:09;;;;;;;;;0.00;0.00;;;;;21.31;36.93;99981.72;5030698;27;45655;-74
2021/12/05 04:30:35;;;;;;;;;0.00;0.00;;;;;21.31;36.67;99974.63;5030321;28;47511;-75
2021/12/05 04:33:00;;;;;;;;;2.00;0.00;;;;;21.31;36.71;99964.03;5030649;28;45536;-74
2021/12/05 04:35:26;;;;;;;;;0.00;0.00;;;;;21.32;36.64;99964.81;5030715;28;45722;-74
2021/12/05 04:37:51;;;;;;;;;0.00;0.00;;;;;21.27;36.52;99955.66;5032139;28;45368;-74
2021/12/05 04:40:17;;;;;;;;;1.00;0.00;;;;;21.31;36.81;99957.91;5030976;28;45612;-73
2021/12/05 04:42:43;;;;;;;;;1.00;0.00;;;;;21.30;36.77;99954.44;5019403;28;45413;-74
2021/12/05 04:45:15;;;;;;;;;2.00;0.00;;;;;21.32;36.62;99956.88;5030328;28;45308;-74
2021/12/05 04:47:40;;;;;;;;;0.75;0.00;;;;;21.31;36.47;99957.91;5030590;27;45438;-74
2021/12/05 04:50:06;;;;;;;;;0.00;0.00;;;;;21.30;37.03;99957.09;5030199;28;45796;-74
2021/12/05 04:52:32;;;;;;;;;0.00;0.00;;;;;21.29;36.42;99953.63;5032418;28;45392;-74
2021/12/05 04:54:58;;;;;;;;;0.00;0.00;;;;;21.29;36.73;99945.69;5030242;27;45363;-74
2021/12/05 04:57:23;;;;;;;;;0.00;0.00;;;;;21.29;36.64;99940.41;5030401;28;45379;-74
2021/12/05 04:59:50;;;;;;;;;0.00;0.00;;;;;21.31;36.57;99936.75;5028513;28;45635;-74
2021/12/05 05:02:16;;;;;;;;;3.00;0.00;;;;;21.28;36.89;99938.78;5014637;28;45355;-74
2021/12/05 05:04:46;;;;;;;;;0.00;0.00;;;;;21.30;36.70;99941.22;5027798;28;45367;-74
2021/12/05 05:07:20;;;;;;;;;0.67;0.00;;;;;21.28;36.94;99946.72;5028915;28;45614;-73
2021/12/05 05:09:46;;;;;;;;;0.00;0.00;;;;;21.28;36.63;99948.53;5029741;28;47242;-74
2021/12/05 05:12:12;;;;;;;;;0.00;0.00;;;;;21.27;36.59;99945.09;5029753;28;45436;-74
2021/12/05 05:14:38;;;;;;;;;0.00;0.00;;;;;21.28;36.69;99957.31;5029801;28;45339;-74
2021/12/05 05:17:03;;;;;;;;;0.00;0.00;;;;;21.27;36.64;99939.78;5029905;28;45424;-74
2021/12/05 05:19:35;;;;;;;;;1.00;1.00;;;;;21.26;36.82;99937.34;5031599;28;46078;-74
2021/12/05 05:25:54;;;;;;;;;1.00;0.00;;;;;21.27;36.74;99938.97;5029824;28;45456;-74
2021/12/05 05:51:01;;;;;;;;;0.25;0.25;;;;;21.26;36.88;99943.44;5032323;28;45741;-74
2021/12/05 05:53:26;;;;;;;;;0.00;0.00;;;;;21.19;36.60;99932.00;5032747;28;45384;-74
2021/12/05 05:55:53;;;;;;;;;0.00;0.00;;;;;21.25;36.79;99947.13;5034129;28;45371;-74
2021/12/05 05:58:23;;;;;;;;;1.00;1.00;;;;;21.22;36.53;99950.16;5033323;28;45435;-74
2021/12/05 06:01:06;;;;;;;;;2.00;0.00;;;;;21.25;36.94;99960.34;5030804;28;47327;-74
2021/12/05 06:03:32;;;;;;;;;1.00;0.00;;;;;21.24;36.61;99953.41;5032298;27;45402;-74
2021/12/05 06:06:07;;;;;;;;;0.00;0.00;;;;;21.17;36.54;99945.44;5032514;28;45427;-74
2021/12/05 06:08:35;;;;;;;;;0.00;0.00;;;;;21.21;36.86;99950.34;5032643;27;45446;-74
2021/12/05 06:11:04;;;;;;;;;0.00;0.00;;;;;21.25;36.65;99962.97;5032376;28;46545;-74
2021/12/05 06:13:31;;;;;;;;;0.50;0.50;;;;;21.23;36.53;99953.63;5034019;28;45379;-74
2021/12/05 06:15:57;;;;;;;;;0.00;0.00;;;;;21.26;36.45;99966.44;5032311;27;45373;-74
2021/12/05 06:18:23;;;;;;;;;0.00;0.00;;;;;21.25;36.64;99965.63;5031089;28;45521;-74
2021/12/05 06:20:50;;;;;;;;;0.00;0.00;;;;;21.19;36.67;99955.81;5032006;27;45410;-74
2021/12/05 06:23:15;;;;;;;;;0.00;0.00;;;;;21.25;36.80;99968.28;5015497;27;45488;-73
2021/12/05 06:25:44;;;;;;;;;1.00;0.00;;;;;21.18;36.80;99962.16;5034187;28;45366;-74
2021/12/05 06:28:12;;;;;;;;;0.00;0.00;;;;;21.26;36.44;99983.13;5031885;28;45262;-74
2021/12/05 06:46:24;;;;;;;;;0.00;0.00;;;;;21.26;36.71;100006.13;5032170;28;45655;-74
2021/12/05 06:48:50;;;;;;;;;0.00;0.00;;;;;21.15;36.61;99991.63;5031826;28;45406;-74
2021/12/05 06:51:20;;;;;;;;;0.00;0.00;;;;;21.19;36.59;99998.16;5031589;28;47067;-74
2021/12/05 06:53:46;;;;;;;;;0.33;0.33;;;;;21.26;36.75;100011.44;5031880;28;45309;-74
2021/12/05 06:56:12;;;;;;;;;0.00;0.00;;;;;21.25;36.67;100007.13;5013632;27;45343;-74
2021/12/05 06:58:37;;;;;;;;;0.00;0.00;;;;;21.21;36.44;99996.13;5033322;28;45791;-74
2021/12/05 07:01:06;;;;;;;;;0.00;0.00;;;;;21.26;36.65;100006.13;5031563;28;47002;-74
2021/12/05 07:03:33;;;;;;;;;0.00;0.00;;;;;21.17;37.00;100000.19;5031584;28;45453;-74
2021/12/05 07:06:12;;;;;;;;;0.00;0.00;;;;;21.14;36.38;99998.75;5032081;27;45388;-74
2021/12/05 07:08:41;;;;;;;;;0.00;0.00;;;;;21.23;36.65;100023.22;5031705;28;45256;-74
2021/12/05 07:16:15;;;;;;;;;0.00;0.00;;;;;21.21;36.45;100027.06;5031570;28;45383;-74
2021/12/05 07:19:22;;;;;;;;;0.00;0.00;;;;;21.23;36.70;100028.50;5030202;28;45433;-74
2021/12/05 07:42:43;;;;;;;;;0.00;0.00;;;;;21.22;36.67;100041.91;5031112;28;45371;-74
2021/12/05 07:45:17;;;;;;;;;0.00;0.00;;;;;21.21;36.51;100046.38;5025754;27;45178;-74
2021/12/05 07:47:46;;;;;;;;;0.00;0.00;;;;;21.20;36.71;100049.22;5031531;28;45244;-75
2021/12/05 07:50:13;;;;;;;;;0.00;0.00;;;;;21.20;36.48;100041.28;5029864;28;45441;-74
2021/12/05 07:52:43;;;;;;;;;0.00;0.00;;;;;21.20;36.46;100034.19;5033176;28;47416;-74
2021/12/05 07:55:16;;;;;;;;;0.00;0.00;;;;;21.21;36.25;100035.00;5030775;27;45406;-75
2021/12/05 07:58:03;;;;;;;;;0.00;0.00;;;;;21.20;36.85;100041.28;5029667;28;45384;-74
2021/12/05 08:14:42;;;;;;;;;0.75;0.00;;;;;21.21;36.39;100054.31;5050223;28;45497;-74
2021/12/05 08:17:14;;;;;;;;;0.00;0.00;;;;;21.13;36.51;100047.34;5051108;28;45295;-74
2021/12/05 08:19:40;;;;;;;;;2.00;0.00;;;;;21.21;36.29;100056.97;5037843;28;45679;-74
2021/12/05 08:22:05;;;;;;;;;1.00;0.00;;;;;21.21;36.63;100059.59;4966348;28;45593;-74
2021/12/05 08:24:33;;;;;;;;;0.00;0.00;;;;;21.17;36.62;100063.66;4965886;28;45409;-74
2021/12/05 08:26:59;;;;;;;;;0.00;0.00;;;;;21.22;36.46;100069.19;4966322;28;45543;-74
2021/12/05 08:32:17;;;;;;;;;0.00;0.00;;;;;21.22;36.67;100055.97;4970624;28;45431;-74
2021/12/05 08:34:58;;;;;;;;;0.00;0.00;;;;;21.15;36.75;100041.88;4966834;28;45576;-74
2021/12/05 08:38:03;;;;;;;;;0.00;0.00;;;;;21.11;36.63;100044.09;4961259;28;45412;-74
2021/12/05 09:21:32;;;;;;;;;0.50;0.00;;;;;21.11;36.36;100078.47;5026137;27;45633;-75
2021/12/05 10:01:59;;;;;;;;;0.00;0.00;;;;;21.17;36.22;100121.84;5074400;28;45320;-74
2021/12/05 10:10:08;;;;;;;;;0.00;0.00;;;;;21.28;35.78;100144.34;5027836;28;45271;-73
2021/12/05 10:15:45;;;;;;;;;0.00;0.00;;;;;21.28;36.10;100150.44;5022768;28;45461;-74
2021/12/05 10:38:54;;;;;;;;;0.00;0.00;;;;;21.33;36.31;100199.31;5028898;28;45513;-74
2021/12/05 10:44:11;;;;;;;;;2.50;0.00;;;;;21.30;36.38;100187.28;5032338;28;45661;-74
2021/12/05 10:46:39;;;;;;;;;0.00;0.00;;;;;21.30;36.17;100189.94;5030537;28;45542;-73
2021/12/05 10:49:15;;;;;;;;;0.00;0.00;;;;;21.04;35.95;100152.50;5027925;28;45607;-73
2021/12/05 10:51:55;;;;;;;;;1.33;0.00;;;;;21.35;36.21;100184.88;5024590;28;45643;-74
2021/12/05 10:54:23;;;;;;;;;0.00;0.00;;;;;21.34;35.90;100188.53;5020050;28;45350;-74
2021/12/05 10:56:54;;;;;;;;;0.00;0.00;;;;;21.34;36.17;100185.09;5019823;28;46591;-74
2021/12/05 10:59:38;;;;;;;;;0.00;0.00;;;;;21.17;36.11;100159.72;5017328;28;45539;-74
2021/12/05 11:02:07;;;;;;;;;0.00;0.00;;;;;21.34;36.29;100188.53;5031342;28;45601;-74
2021/12/05 11:04:34;;;;;;;;;0.00;0.00;;;;;21.35;36.37;100205.22;5030284;28;45451;-74
2021/12/05 11:07:10;;;;;;;;;0.00;0.00;;;;;21.35;36.25;100182.25;5027939;28;46512;-74
2021/12/05 11:09:38;;;;;;;;;0.50;0.00;;;;;21.36;36.13;100196.28;5027683;28;45348;-74
2021/12/05 11:12:14;;;;;;;;;1.67;0.00;;;;;21.36;36.17;100198.94;5030273;28;45613;-74
2021/12/05 11:14:43;;;;;;;;;0.00;0.00;;;;;21.22;36.52;100176.84;5031733;28;45455;-74
2021/12/05 11:17:15;;;;;;;;;1.00;1.00;;;;;21.36;36.08;100205.06;5031005;28;45555;-74
2021/12/05 11:19:48;;;;;;;;;0.00;0.00;;;;;21.36;36.16;100212.16;5033401;27;45559;-74
2021/12/05 11:22:17;;;;;;;;;0.00;0.00;;;;;21.35;36.25;100211.34;5032489;27;45482;-74
2021/12/05 11:25:09;;;;;;;;;0.67;0.00;;;;;21.36;36.06;100207.69;5031114;28;45573;-74
2021/12/05 11:27:57;;;;;;;;;0.00;0.00;;;;;21.37;36.14;100211.16;5031216;28;46934;-74
2021/12/05 11:30:31;;;;;;;;;0.33;0.33;;;;;21.37;36.00;100205.84;5030203;28;45376;-74
2021/12/05 11:33:06;;;;;;;;;0.00;0.00;;;;;21.37;35.99;100214.63;5031133;28;45390;-74
2021/12/05 11:35:37;;;;;;;;;0.00;0.00;;;;;21.38;36.37;100216.25;5031567;28;45305;-74
2021/12/05 11:38:05;;;;;;;;;0.00;0.00;;;;;21.38;36.04;100207.50;5031360;28;46201;-74
2021/12/05 11:40:42;;;;;;;;;1.00;0.00;;;;;21.37;36.44;100204.03;5033379;28;45330;-74
2021/12/05 11:43:10;;;;;;;;;0.00;0.00;;;;;21.33;36.40;100210.72;5031271;28;45347;-75
2021/12/05 11:45:55;;;;;;;;;0.00;0.00;;;;;21.38;36.35;100207.50;5029353;28;45484;-73
2021/12/05 11:48:32;;;;;;;;;0.00;0.00;;;;;21.26;36.17;100197.41;5031081;28;46693;-74
2021/12/05 11:51:00;;;;;;;;;0.00;0.00;;;;;21.39;35.83;100217.88;5029830;27;45509;-74
2021/12/05 11:53:36;;;;;;;;;0.00;0.00;;;;;21.42;35.95;100226.47;5029904;28;45489;-74
2021/12/05 11:56:02;;;;;;;;;1.00;0.00;;;;;21.38;36.02;100226.03;5031564;28;45288;-74
2021/12/05 11:58:27;;;;;;;;;0.00;0.00;;;;;21.40;36.35;100232.75;5032994;28;45346;-74
2021/12/05 12:00:53;;;;;;;;;0.00;0.00;;;;;21.33;36.14;100218.66;5030758;28;45468;-73
2021/12/05 12:03:38;;;;;;;;;0.00;0.00;;;;;21.35;36.05;100229.03;5031287;27;45400;-73
2021/12/05 12:06:03;;;;;;;;;0.00;0.00;;;;;21.35;36.35;100221.09;5030984;28;45425;-75
2021/12/05 12:08:29;;;;;;;;;0.00;0.00;;;;;21.43;35.69;100228.91;5029644;28;46033;-74
2021/12/05 12:11:00;;;;;;;;;0.00;0.00;;;;;;;;5032050;28;45389;-74
2021/12/05 12:13:30;;;;;;;;;0.00;0.00;;;;;21.43;36.15;100234.22;5033130;28;45478;-73
2021/12/05 12:15:59;;;;;;;;;0.00;0.00;;;;;21.44;36.33;100233.22;5028940;28;45978;-73
2021/12/05 12:18:29;;;;;;;;;0.00;0.00;;;;;21.35;35.98;100232.50;5030461;28;46160;-74
2021/12/05 12:20:57;;;;;;;;;0.00;0.00;;;;;21.44;36.17;100238.50;5030450;28;45418;-74
2021/12/05 12:23:24;;;;;;;;;1.67;0.00;;;;;21.34;35.85;100214.19;5030900;28;45265;-73
2021/12/05 12:25:57;;;;;;;;;0.00;0.00;;;;;21.22;35.91;100203.28;5032499;28;45525;-74
2021/12/05 12:28:22;;;;;;;;;0.00;0.00;;;;;21.36;36.23;100225.41;5031799;28;46921;-74
2021/12/05 12:31:02;;;;;;;;;0.00;0.00;;;;;21.47;36.34;100237.28;5028726;27;45494;-73
2021/12/05 12:33:32;;;;;;;;;1.00;0.00;;;;;21.47;36.36;100243.38;5030849;28;45521;-74
2021/12/05 12:35:58;;;;;;;;;0.00;0.00;;;;;21.44;35.81;100240.31;5029925;27;45286;-74
2021/12/05 12:38:29;;;;;;;;;0.00;0.00;;;;;21.48;36.00;100246.88;5030505;27;46199;-74
2021/12/05 12:40:59;;;;;;;;;0.00;0.00;;;;;21.46;36.22;100249.72;5031827;28;45449;-74
2021/12/05 12:43:38;;;;;;;;;1.00;0.00;;;;;21.48;36.14;100255.63;5032083;28;45441;-74
2021/12/05 12:46:19;;;;;;;;;0.00;0.00;;;;;21.42;35.96;100263.53;5030453;27;45497;-74
2021/12/05 12:48:46;;;;;;;;;0.00;0.00;;;;;21.46;36.13;100262.94;5029109;28;45361;-74
2021/12/05 12:51:32;;;;;;;;;0.00;0.00;;;;;21.48;36.30;100271.50;5030287;28;45388;-74
2021/12/05 12:54:03;;;;;;;;;0.00;0.00;;;;;21.47;36.10;100277.78;5030522;28;45411;-74
2021/12/05 12:56:29;;;;;;;;;0.00;0.00;;;;;21.45;36.37;100271.88;5030540;27;45529;-74
2021/12/05 12:59:05;;;;;;;;;0.00;0.00;;;;;21.49;35.91;100277.63;5031106;28;46018;-74
2021/12/05 13:10:09;;;;;;;;;0.00;0.00;;;;;21.49;35.97;100293.50;5028446;28;45682;-74
2021/12/05 13:12:45;;;;;;;;;0.00;0.00;;;;;21.49;36.08;100290.84;5029868;28;45490;-74
2021/12/05 13:15:22;;;;;;;;;0.00;0.00;;;;;21.49;36.00;100302.25;5030001;28;45441;-74
2021/12/05 13:18:15;;;;;;;;;0.00;0.00;;;;;21.47;36.11;100301.63;5030061;28;45486;-74
2021/12/05 13:20:40;;;;;;;;;1.00;0.00;;;;;21.48;35.94;100303.28;5014127;28;46189;-74
2021/12/05 13:23:18;;;;;;;;;1.67;0.00;;;;;21.49;35.97;100319.97;5029162;28;45514;-74
2021/12/05 13:26:06;;;;;;;;;0.00;0.00;;;;;21.48;36.13;100316.50;5032283;28;45424;-73
2021/12/05 13:28:39;;;;;;;;;0.00;0.00;;;;;21.37;35.84;100303.75;5031531;28;45406;-75
2021/12/05 13:31:28;;;;;;;;;0.00;0.00;;;;;21.48;36.30;100316.50;5029337;28;45471;-74
2021/12/05 13:34:16;;;;;;;;;0.00;0.00;;;;;21.49;36.25;100326.06;5029567;28;45345;-74
2021/12/05 13:36:44;;;;;;;;;0.75;0.00;;;;;21.38;36.06;100308.88;5029709;28;45418;-74
2021/12/05 13:39:28;;;;;;;;;0.00;0.00;;;;;21.50;35.93;100332.19;5029602;28;45460;-74
2021/12/05 13:42:16;;;;;;;;;0.00;0.00;;;;;21.50;36.17;100337.47;5028986;28;46357;-74
2021/12/05 13:45:10;;;;;;;;;0.00;0.00;;;;;21.50;36.12;100337.47;5029553;27;45307;-73
2021/12/05 13:47:42;;;;;;;;;0.00;0.00;;;;;21.50;36.19;100348.06;5016768;27;45216;-73
2021/12/05 13:50:27;;;;;;;;;0.67;0.00;;;;;21.52;36.12;100346.03;5021267;28;45391;-73
2021/12/05 13:53:07;;;;;;;;;0.67;0.00;;;;;21.53;36.04;100358.28;5030253;28;49683;-82
2021/12/05 13:55:53;;;;;;;;;0.25;0.00;;;;;21.52;36.04;100370.69;5029151;28;45472;-75
2021/12/05 13:58:32;;;;;;;;;0.00;0.00;;;;;21.48;36.27;100361.50;5026984;28;45562;-77
2021/12/05 14:01:11;;;;;;;;;0.00;0.00;;;;;21.55;36.55;100369.50;5023454;27;45306;-78
2021/12/05 14:03:56;;;;;;;;;0.00;0.00;;;;;21.57;36.51;100369.31;5019511;27;46397;-75
2021/12/05 14:06:53;;;;;;;;;0.00;0.00;;;;;21.58;36.58;100376.25;5028966;28;45785;-75
2021/12/05 14:09:26;;;;;;;;;0.00;0.00;;;;;21.56;36.61;100400.25;5023353;28;45542;-76
2021/12/05 14:12:02;;;;;;;;;0.00;0.00;;;;;21.52;36.13;100397.16;5026732;28;45270;-78
2021/12/05 14:14:31;;;;;;;;;0.00;0.00;;;;;21.61;36.68;100403.16;5024102;27;47066;-75
2021/12/05 14:16:59;;;;;;;;;0.00;0.00;;;;;21.58;37.19;100400.88;5022720;28;45391;-75
2021/12/05 14:19:30;;;;;;;;;0.00;0.00;;;;;21.63;36.68;100408.25;5022532;27;45296;-75
2021/12/05 14:21:57;;;;;;;;;0.00;0.00;;;;;21.64;36.82;100407.25;5025851;27;45509;-75
2021/12/05 14:24:26;;;;;;;;;0.00;0.00;;;;;21.66;36.83;100417.66;5023114;28;46063;-73
2021/12/05 14:26:54;;;;;;;;;0.33;0.33;;;;;21.57;37.05;100404.53;5014271;27;45861;-76
2021/12/05 14:29:23;;;;;;;;;0.00;0.00;;;;;21.58;36.99;100413.31;5018726;27;45423;-76
2021/12/05 14:31:53;;;;;;;;;0.00;0.00;;;;;21.67;36.81;100425.44;5022256;28;45296;-74
2021/12/05 14:34:20;;;;;;;;;0.00;0.00;;;;;21.62;36.83;100419.88;5018477;28;46119;-72
2021/12/05 14:36:55;;;;;;;;;0.00;0.00;;;;;21.59;36.92;100415.78;5022616;27;46043;-73
2021/12/05 14:39:35;;;;;;;;;0.00;0.00;;;;;21.71;36.56;100428.50;5022263;28;45421;-73
2021/12/05 14:42:05;;;;;;;;;0.00;0.00;;;;;21.73;36.93;100431.78;5025117;28;45411;-73
2021/12/05 14:44:31;;;;;;;;;1.00;1.00;;;;;21.67;37.31;100428.06;5021685;28;46257;-73
2021/12/05 14:47:02;;;;;;;;;0.00;0.00;;;;;21.73;36.53;100435.25;5021365;27;45465;-74
2021/12/05 14:49:30;;;;;;;;;0.00;0.00;;;;;21.77;37.05;100454.25;5025639;27;45405;-73
2021/12/05 14:51:56;;;;;;;;;0.33;0.00;;;;;21.78;37.22;100460.38;5025056;28;45668;-73
2021/12/05 14:54:35;;;;;;;;;0.00;0.00;;;;;21.78;37.19;100455.88;5016542;27;47053;-73
2021/12/05 14:57:06;;;;;;;;;0.00;0.00;;;;;21.80;36.90;100463.63;5021352;28;45558;-73
2021/12/05 14:59:32;;;;;;;;;0.00;0.00;;;;;21.80;37.29;100458.34;5026420;28;45311;-73
2021/12/05 15:01:58;;;;;;;;;0.00;0.00;;;;;21.81;36.78;100468.72;5009284;27;45502;-73
2021/12/05 15:04:29;;;;;;;;;1.00;0.00;;;;;21.72;37.33;100457.47;5022856;28;46183;-74
2021/12/05 15:06:56;;;;;;;;;0.67;0.00;;;;;21.79;36.84;100475.22;5024379;28;45442;-74
2021/12/05 15:09:34;;;;;;;;;1.00;0.00;;;;;21.83;37.04;100476.50;5026143;27;45535;-73
2021/12/05 15:12:02;;;;;;;;;0.00;0.00;;;;;21.83;37.04;100482.59;5049263;27;45443;-73
2021/12/05 15:14:28;;;;;;;;;0.00;0.00;;;;;21.86;37.43;100478.75;5045261;27;47260;-73
2021/12/05 15:16:58;;;;;;;;;0.00;0.00;;;;;21.86;37.37;100473.47;5045748;27;45546;-73
2021/12/05 15:19:24;;;;;;;;;0.33;0.00;;;;;21.88;37.15;100490.03;5030182;27;45479;-73
2021/12/05 15:21:50;;;;;;;;;0.25;0.00;;;;;21.90;37.41;100495.13;5026639;27;45564;-73
2021/12/05 15:24:18;;;;;;;;;0.00;0.00;;;;;21.82;37.47;100478.34;5023159;27;47079;-74
2021/12/05 15:26:43;;;;;;;;;0.00;0.00;;;;;21.61;37.41;100448.16;5030641;27;45379;-73
2021/12/05 15:29:09;;;;;;;;;0.00;0.00;;;;;21.91;37.52;100496.78;5035025;27;45469;-73
2021/12/05 15:31:37;;;;;;;;;0.00;0.00;;;;;21.92;37.19;100501.06;5082744;27;45461;-73
2021/12/05 15:34:18;;;;;;;;;1.00;1.00;;;;;21.92;37.37;100507.19;5074914;27;45803;-73
2021/12/05 15:36:43;;;;;;;;;0.00;0.00;;;;;21.82;37.67;100496.03;5035666;27;45537;-74
2021/12/05 15:39:19;;;;;;;;;0.00;0.00;;;;;21.90;37.40;100519.81;5072027;27;45381;-73
2021/12/05 15:41:46;;;;;;;;;0.00;0.00;;;;;21.91;37.12;100528.56;5053355;27;45449;-74
2021/12/05 15:44:26;;;;;;;;;0.67;0.00;;;;;21.76;37.51;100517.97;5019649;27;45485;-76
2021/12/05 15:47:03;;;;;;;;;0.00;0.00;;;;;21.90;37.08;100541.00;5032005;27;45288;-74
2021/12/05 15:49:44;;;;;;;;;0.00;0.00;;;;;21.74;37.56;100513.69;5017611;27;45575;-74
2021/12/05 15:52:10;;;;;;;;;1.00;0.00;;;;;21.90;37.22;100548.94;5017759;27;45376;-74
2021/12/05 15:54:38;;;;;;;;;1.00;0.00;;;;;21.86;37.24;100542.31;5018305;27;45555;-75
2021/12/05 15:57:14;;;;;;;;;0.00;0.00;;;;;21.81;37.10;100545.53;5017529;28;45442;-75
2021/12/05 15:59:43;;;;;;;;;0.00;0.00;;;;;21.90;37.53;100564.00;5016830;27;45389;-73
2021/12/05 16:02:11;;;;;;;;;0.00;0.00;;;;;21.77;37.10;100531.03;5015269;27;45381;-73
2021/12/05 16:04:38;;;;;;;;;0.00;0.00;;;;;21.78;37.14;100542.47;5017595;27;46047;-73
2021/12/05 16:07:08;;;;;;;;;0.00;0.00;;;;;21.87;37.57;100556.38;5017780;27;45355;-73
2021/12/05 16:09:35;;;;;;;;;1.00;1.00;;;;;21.85;37.63;100565.38;5018152;27;45299;-74
2021/12/05 16:12:08;;;;;;;;;0.00;0.00;;;;;21.85;37.50;100572.47;5014069;27;45316;-74
2021/12/05 16:14:37;;;;;;;;;0.00;0.00;;;;;21.83;37.68;100577.16;5029076;28;45497;-75
2021/12/05 16:17:16;;;;;;;;;0.00;0.00;;;;;21.81;38.09;100572.00;4997847;28;45444;-74
2021/12/05 16:20:12;;;;;;;;;0.33;0.00;;;;;21.81;37.67;100582.59;5017648;27;45416;-74
2021/12/05 16:23:12;;;;;;;;;0.00;0.00;;;;;21.81;38.25;100581.78;5049764;27;45305;-74
2021/12/05 16:25:43;;;;;;;;;0.00;0.00;;;;;21.72;38.03;100570.50;5032321;28;46227;-75
2021/12/05 16:28:12;;;;;;;;;1.00;0.00;;;;;21.80;38.38;100588.09;5030404;27;45477;-75
2021/12/05 16:30:45;;;;;;;;;0.00;0.00;;;;;21.80;38.29;100591.59;5030688;28;45489;-75
2021/12/05 16:33:15;;;;;;;;;0.00;0.00;;;;;21.81;38.13;100605.63;5030532;27;45609;-75
2021/12/05 16:35:49;;;;;;;;;4.00;0.75;;;;;21.80;37.97;100604.81;5030089;28;47111;-75
2021/12/05 16:38:17;;;;;;;;;0.00;0.00;;;;;21.80;38.33;100596.88;5029368;28;45370;-75
2021/12/05 16:41:10;;;;;;;;;2.00;0.75;;;;;21.80;38.46;100607.47;5032439;28;45338;-75
2021/12/05 16:43:46;;;;;;;;;0.00;0.00;;;;;21.80;38.46;100615.41;5031337;28;45338;-75
2021/12/05 16:46:15;;;;;;;;;0.00;0.00;;;;;21.78;38.08;100619.25;5030143;28;45432;-74
2021/12/05 16:48:43;;;;;;;;;0.00;0.00;;;;;21.74;38.39;100608.19;5030311;27;45627;-74
2021/12/05 16:51:13;;;;;;;;;0.00;0.00;;;;;21.81;38.56;100621.50;5030005;27;45436;-74
2021/12/05 16:53:44;;;;;;;;;1.00;0.00;;;;;21.82;38.81;100624.00;5030308;28;45388;-74
2021/12/05 16:56:13;;;;;;;;;1.00;0.00;;;;;21.83;38.31;100627.47;5030050;28;46324;-74
2021/12/05 16:58:42;;;;;;;;;0.00;0.00;;;;;21.81;38.34;100621.50;5032133;28;45355;-74
2021/12/05 17:01:14;;;;;;;;;0.33;0.33;;;;;21.83;38.36;100622.97;5030214;28;45609;-73
2021/12/05 17:03:43;;;;;;;;;2.00;0.00;;;;;21.83;38.58;100625.63;5028886;28;45729;-73
2021/12/05 17:06:11;;;;;;;;;0.00;0.00;;;;;21.81;38.71;100624.97;5013344;27;47954;-74
2021/12/05 17:08:44;;;;;;;;;0.00;0.00;;;;;21.85;38.47;100634.22;5030053;27;45417;-74
2021/12/05 17:11:10;;;;;;;;;0.00;0.00;;;;;21.84;38.74;100629.09;5011978;28;45552;-75
2021/12/05 17:13:40;;;;;;;;;0.67;0.00;;;;;21.84;38.48;100629.91;5030863;28;45470;-75
2021/12/05 17:16:10;;;;;;;;;0.00;0.00;;;;;21.84;39.08;100631.75;5029666;28;46475;-75